createdAt,value
2022-09-26T00:00:16.679Z,1000.45
2022-09-26T00:00:37.694Z,1000.43
2022-09-26T00:00:58.830Z,1000.41
2022-09-26T00:01:19.911Z,1000.45
2022-09-26T00:01:41.024Z,1000.43
2022-09-26T00:02:02.134Z,1000.43
2022-09-26T00:02:23.237Z,1000.41
2022-09-26T00:02:44.431Z,1000.43
2022-09-26T00:03:05.463Z,1000.43
2022-09-26T00:03:26.550Z,1000.41
2022-09-26T00:03:47.614Z,1000.43
2022-09-26T00:04:08.662Z,1000.43
2022-09-26T00:04:32.762Z,1000.45
2022-09-26T00:04:54.133Z,1000.45
2022-09-26T00:05:15.172Z,1000.45
2022-09-26T00:05:36.227Z,1000.43
2022-09-26T00:05:57.281Z,1000.45
2022-09-26T00:06:18.357Z,1000.43
2022-09-26T00:06:39.386Z,1000.45
2022-09-26T00:07:00.449Z,1000.43
2022-09-26T00:07:21.492Z,1000.45
2022-09-26T00:07:42.658Z,1000.47
2022-09-26T00:08:03.682Z,1000.41
2022-09-26T00:08:24.723Z,1000.47
2022-09-26T00:08:45.787Z,1000.41
2022-09-26T00:09:06.925Z,1000.41
2022-09-26T00:09:27.959Z,1000.49
2022-09-26T00:09:49.013Z,1000.45
2022-09-26T00:10:10.089Z,1000.41
2022-09-26T00:10:31.191Z,1000.41
2022-09-26T00:10:52.210Z,1000.39
2022-09-26T00:11:13.262Z,1000.39
2022-09-26T00:11:34.314Z,1000.47
2022-09-26T00:11:55.370Z,1000.39
2022-09-26T00:12:16.440Z,1000.39
2022-09-26T00:12:37.495Z,1000.37
2022-09-26T00:12:58.556Z,1000.39
2022-09-26T00:13:19.607Z,1000.37
2022-09-26T00:13:40.679Z,1000.45
2022-09-26T00:14:01.718Z,1000.43
2022-09-26T00:14:22.805Z,1000.37
2022-09-26T00:14:43.866Z,1000.41
2022-09-26T00:15:04.914Z,1000.37
2022-09-26T00:15:26.071Z,1000.41
2022-09-26T00:15:47.122Z,1000.43
2022-09-26T00:16:08.293Z,1000.37
2022-09-26T00:16:29.350Z,1000.35
2022-09-26T00:16:50.505Z,1000.37
2022-09-26T00:17:11.694Z,1000.35
2022-09-26T00:17:32.770Z,1000.41
2022-09-26T00:17:53.801Z,1000.35
2022-09-26T00:18:14.861Z,1000.33
2022-09-26T00:18:35.908Z,1000.35
2022-09-26T00:18:56.995Z,1000.35
2022-09-26T00:19:18.034Z,1000.37
2022-09-26T00:19:39.091Z,1000.35
2022-09-26T00:20:00.160Z,1000.31
2022-09-26T00:20:21.222Z,1000.31
2022-09-26T00:20:42.394Z,1000.35
2022-09-26T00:21:03.464Z,1000.31
2022-09-26T00:21:24.506Z,1000.33
2022-09-26T00:21:45.556Z,1000.35
2022-09-26T00:22:06.605Z,1000.33
2022-09-26T00:22:27.657Z,1000.33
2022-09-26T00:22:48.708Z,1000.33
2022-09-26T00:23:09.769Z,1000.33
2022-09-26T00:23:30.856Z,1000.33
2022-09-26T00:23:51.913Z,1000.33
2022-09-26T00:24:12.940Z,1000.31
2022-09-26T00:24:33.984Z,1000.33
2022-09-26T00:24:55.039Z,1000.33
2022-09-26T00:25:16.103Z,1000.29
2022-09-26T00:25:37.157Z,1000.33
2022-09-26T00:25:58.278Z,1000.29
2022-09-26T00:26:19.321Z,1000.33
2022-09-26T00:26:40.370Z,1000.31
2022-09-26T00:27:01.419Z,1000.31
2022-09-26T00:27:22.465Z,1000.29
2022-09-26T00:27:43.527Z,1000.29
2022-09-26T00:28:04.575Z,1000.27
2022-09-26T00:28:25.679Z,1000.29
2022-09-26T00:28:46.696Z,1000.29
2022-09-26T00:29:07.766Z,1000.29
2022-09-26T00:29:28.828Z,1000.29
2022-09-26T00:29:49.998Z,1000.29
2022-09-26T00:30:11.046Z,1000.29
2022-09-26T00:30:32.233Z,1000.27
2022-09-26T00:30:53.398Z,1000.29
2022-09-26T00:31:14.541Z,1000.29
2022-09-26T00:31:35.588Z,1000.29
2022-09-26T00:31:56.659Z,1000.31
2022-09-26T00:32:17.708Z,1000.29
2022-09-26T00:32:38.768Z,1000.29
2022-09-26T00:32:59.815Z,1000.29
2022-09-26T00:33:20.907Z,1000.27
2022-09-26T00:33:41.916Z,1000.27
2022-09-26T00:34:02.975Z,1000.29
2022-09-26T00:34:24.030Z,1000.27
2022-09-26T00:34:45.086Z,1000.29
2022-09-26T00:35:06.157Z,1000.31
2022-09-26T00:35:27.211Z,1000.29
2022-09-26T00:35:48.252Z,1000.31
2022-09-26T00:36:09.423Z,1000.31
2022-09-26T00:36:37.910Z,1000.29
2022-09-26T00:36:57.394Z,1000.29
2022-09-26T00:37:18.481Z,1000.29
2022-09-26T00:37:39.555Z,1000.29
2022-09-26T00:38:00.604Z,1000.31
2022-09-26T00:38:21.646Z,1000.31
2022-09-26T00:38:42.757Z,1000.31
2022-09-26T00:39:03.795Z,1000.27
2022-09-26T00:39:24.859Z,1000.27
2022-09-26T00:39:45.909Z,1000.27
2022-09-26T00:40:06.953Z,1000.29
2022-09-26T00:40:28.154Z,1000.29
2022-09-26T00:40:49.271Z,1000.29
2022-09-26T00:41:10.325Z,1000.29
2022-09-26T00:41:31.369Z,1000.29
2022-09-26T00:41:52.426Z,1000.27
2022-09-26T00:42:13.473Z,1000.29
2022-09-26T00:42:34.558Z,1000.29
2022-09-26T00:42:55.634Z,1000.27
2022-09-26T00:43:16.696Z,1000.27
2022-09-26T00:43:37.753Z,1000.27
2022-09-26T00:43:58.816Z,1000.27
2022-09-26T00:44:19.875Z,1000.29
2022-09-26T00:44:40.929Z,1000.27
2022-09-26T00:45:01.969Z,1000.29
2022-09-26T00:45:23.021Z,1000.27
2022-09-26T00:45:44.158Z,1000.27
2022-09-26T00:46:05.280Z,1000.27
2022-09-26T00:46:26.585Z,1000.27
2022-09-26T00:46:47.662Z,1000.27
2022-09-26T00:47:08.697Z,1000.27
2022-09-26T00:47:29.767Z,1000.25
2022-09-26T00:47:50.835Z,1000.25
2022-09-26T00:48:11.899Z,1000.25
2022-09-26T00:48:32.955Z,1000.25
2022-09-26T00:48:54.012Z,1000.25
2022-09-26T00:49:15.258Z,1000.25
2022-09-26T00:49:36.355Z,1000.25
2022-09-26T00:49:57.398Z,1000.25
2022-09-26T00:50:18.453Z,1000.25
2022-09-26T00:50:39.523Z,1000.23
2022-09-26T00:51:00.565Z,1000.23
2022-09-26T00:51:21.622Z,1000.23
2022-09-26T00:51:42.671Z,1000.23
2022-09-26T00:52:03.727Z,1000.25
2022-09-26T00:52:24.767Z,1000.25
2022-09-26T00:52:45.881Z,1000.25
2022-09-26T00:53:06.935Z,1000.23
2022-09-26T00:53:27.986Z,1000.15
2022-09-26T00:53:49.051Z,1000.15
2022-09-26T00:54:10.117Z,1000.15
2022-09-26T00:54:31.167Z,1000.15
2022-09-26T00:54:52.324Z,1000.13
2022-09-26T00:55:13.346Z,1000.15
2022-09-26T00:55:34.400Z,1000.13
2022-09-26T00:55:55.445Z,1000.13
2022-09-26T00:56:16.515Z,1000.13
2022-09-26T00:56:37.559Z,1000.09
2022-09-26T00:56:58.615Z,1000.09
2022-09-26T00:57:19.719Z,1000.13
2022-09-26T00:57:40.775Z,1000.07
2022-09-26T00:58:01.818Z,1000.09
2022-09-26T00:58:22.894Z,1000.07
2022-09-26T00:58:43.938Z,1000.07
2022-09-26T00:59:05.112Z,1000.09
2022-09-26T00:59:26.160Z,1000.07
2022-09-26T00:59:47.207Z,1000.07
2022-09-26T01:00:08.267Z,1000.07
2022-09-26T01:00:29.381Z,1000.09
2022-09-26T01:00:50.498Z,1000.07
2022-09-26T01:01:11.694Z,1000.07
2022-09-26T01:01:32.955Z,1000.07
2022-09-26T01:01:54.131Z,1000.09
2022-09-26T01:02:15.312Z,1000.07
2022-09-26T01:02:36.688Z,1000.07
2022-09-26T01:02:57.767Z,1000.07
2022-09-26T01:03:18.810Z,1000.09
2022-09-26T01:03:39.886Z,1000.07
2022-09-26T01:04:00.963Z,1000.07
2022-09-26T01:04:22.021Z,1000.07
2022-09-26T01:04:43.066Z,1000.05
2022-09-26T01:05:04.125Z,1000.07
2022-09-26T01:05:25.200Z,1000.07
2022-09-26T01:05:46.246Z,1000.07
2022-09-26T01:06:07.302Z,1000.07
2022-09-26T01:06:28.386Z,1000.07
2022-09-26T01:06:49.497Z,1000.05
2022-09-26T01:07:10.532Z,1000.05
2022-09-26T01:07:31.584Z,1000.05
2022-09-26T01:07:52.660Z,1000.03
2022-09-26T01:08:13.699Z,1000.01
2022-09-26T01:08:34.740Z,1000.03
2022-09-26T01:08:55.895Z,1000.01
2022-09-26T01:09:16.967Z,1000.01
2022-09-26T01:09:38.064Z,1000.03
2022-09-26T01:09:59.076Z,1000.01
2022-09-26T01:10:20.131Z,1000.01
2022-09-26T01:10:41.187Z,1000.01
2022-09-26T01:11:02.233Z,999.97
2022-09-26T01:11:23.301Z,999.97
2022-09-26T01:11:44.332Z,999.97
2022-09-26T01:12:05.432Z,999.97
2022-09-26T01:12:26.457Z,999.97
2022-09-26T01:12:47.520Z,999.95
2022-09-26T01:13:08.578Z,999.95
2022-09-26T01:13:29.625Z,999.97
2022-09-26T01:13:50.672Z,999.93
2022-09-26T01:14:11.792Z,999.93
2022-09-26T01:14:32.800Z,999.95
2022-09-26T01:14:53.970Z,999.95
2022-09-26T01:15:15.039Z,999.93
2022-09-26T01:15:36.091Z,999.91
2022-09-26T01:15:57.146Z,999.93
2022-09-26T01:16:18.271Z,999.91
2022-09-26T01:16:39.471Z,999.91
2022-09-26T01:17:00.624Z,999.91
2022-09-26T01:17:21.631Z,999.91
2022-09-26T01:17:42.681Z,999.89
2022-09-26T01:18:03.733Z,999.89
2022-09-26T01:18:24.787Z,999.91
2022-09-26T01:18:45.837Z,999.91
2022-09-26T01:19:06.889Z,999.91
2022-09-26T01:19:27.965Z,999.91
2022-09-26T01:19:49.001Z,999.91
2022-09-26T01:20:10.152Z,999.87
2022-09-26T01:20:31.206Z,999.85
2022-09-26T01:20:52.256Z,999.87
2022-09-26T01:21:13.317Z,999.87
2022-09-26T01:21:34.381Z,999.87
2022-09-26T01:21:55.445Z,999.85
2022-09-26T01:22:16.475Z,999.87
2022-09-26T01:22:37.543Z,999.85
2022-09-26T01:22:58.601Z,999.85
2022-09-26T01:23:19.672Z,999.87
2022-09-26T01:23:40.719Z,999.84
2022-09-26T01:24:01.808Z,999.84
2022-09-26T01:24:22.815Z,999.84
2022-09-26T01:24:43.862Z,999.84
2022-09-26T01:25:04.917Z,999.84
2022-09-26T01:25:25.991Z,999.82
2022-09-26T01:25:47.054Z,999.82
2022-09-26T01:26:08.117Z,999.82
2022-09-26T01:26:29.165Z,999.80
2022-09-26T01:26:50.215Z,999.80
2022-09-26T01:27:11.274Z,999.80
2022-09-26T01:27:32.318Z,999.82
2022-09-26T01:27:53.400Z,999.82
2022-09-26T01:28:14.443Z,999.82
2022-09-26T01:28:35.496Z,999.80
2022-09-26T01:28:56.580Z,999.80
2022-09-26T01:29:17.604Z,999.80
2022-09-26T01:29:38.663Z,999.82
2022-09-26T01:29:59.704Z,999.84
2022-09-26T01:30:20.768Z,999.84
2022-09-26T01:30:41.905Z,999.80
2022-09-26T01:31:03.003Z,999.80
2022-09-26T01:31:24.156Z,999.82
2022-09-26T01:31:45.210Z,999.82
2022-09-26T01:32:06.249Z,999.80
2022-09-26T01:32:27.301Z,999.80
2022-09-26T01:32:48.555Z,999.78
2022-09-26T01:33:09.589Z,999.78
2022-09-26T01:33:30.629Z,999.78
2022-09-26T01:33:51.677Z,999.78
2022-09-26T01:34:12.741Z,999.78
2022-09-26T01:34:33.782Z,999.76
2022-09-26T01:34:54.824Z,999.76
2022-09-26T01:35:15.892Z,999.76
2022-09-26T01:35:36.958Z,999.74
2022-09-26T01:35:57.994Z,999.76
2022-09-26T01:36:19.053Z,999.76
2022-09-26T01:36:40.130Z,999.76
2022-09-26T01:37:01.170Z,999.76
2022-09-26T01:37:22.242Z,999.76
2022-09-26T01:37:43.346Z,999.76
2022-09-26T01:38:04.403Z,999.70
2022-09-26T01:38:25.442Z,999.70
2022-09-26T01:38:46.502Z,999.72
2022-09-26T01:39:07.565Z,999.72
2022-09-26T01:39:28.603Z,999.72
2022-09-26T01:39:49.653Z,999.72
2022-09-26T01:40:10.808Z,999.70
2022-09-26T01:40:31.959Z,999.72
2022-09-26T01:40:53.014Z,999.72
2022-09-26T01:41:14.069Z,999.68
2022-09-26T01:41:35.114Z,999.74
2022-09-26T01:41:56.180Z,999.68
2022-09-26T01:42:17.239Z,999.70
2022-09-26T01:42:38.289Z,999.70
2022-09-26T01:42:59.366Z,999.72
2022-09-26T01:43:20.426Z,999.70
2022-09-26T01:43:41.482Z,999.68
2022-09-26T01:44:02.550Z,999.70
2022-09-26T01:44:23.589Z,999.68
2022-09-26T01:44:44.673Z,999.68
2022-09-26T01:45:05.723Z,999.68
2022-09-26T01:45:26.788Z,999.68
2022-09-26T01:45:47.853Z,999.68
2022-09-26T01:46:09.006Z,999.66
2022-09-26T01:46:30.091Z,999.66
2022-09-26T01:46:51.205Z,999.68
2022-09-26T01:47:12.251Z,999.64
2022-09-26T01:47:33.292Z,999.64
2022-09-26T01:47:54.360Z,999.66
2022-09-26T01:48:15.418Z,999.66
2022-09-26T01:48:36.597Z,999.64
2022-09-26T01:48:57.669Z,999.66
2022-09-26T01:49:18.707Z,999.64
2022-09-26T01:49:39.759Z,999.64
2022-09-26T01:50:00.847Z,999.62
2022-09-26T01:50:21.906Z,999.62
2022-09-26T01:50:42.949Z,999.60
2022-09-26T01:51:04.018Z,999.60
2022-09-26T01:51:25.080Z,999.62
2022-09-26T01:51:46.126Z,999.62
2022-09-26T01:52:07.176Z,999.60
2022-09-26T01:52:28.257Z,999.60
2022-09-26T01:52:49.288Z,999.58
2022-09-26T01:53:10.344Z,999.62
2022-09-26T01:53:31.556Z,999.62
2022-09-26T01:53:52.592Z,999.58
2022-09-26T01:54:13.648Z,999.60
2022-09-26T01:54:34.725Z,999.60
2022-09-26T01:54:55.746Z,999.60
2022-09-26T01:55:16.805Z,999.60
2022-09-26T01:55:37.852Z,999.60
2022-09-26T01:55:58.909Z,999.62
2022-09-26T01:56:19.953Z,999.58
2022-09-26T01:56:41.051Z,999.58
2022-09-26T01:57:02.070Z,999.58
2022-09-26T01:57:23.118Z,999.62
2022-09-26T01:57:44.186Z,999.58
2022-09-26T01:58:05.216Z,999.58
2022-09-26T01:58:26.272Z,999.58
2022-09-26T01:58:47.352Z,999.60
2022-09-26T01:59:08.407Z,999.60
2022-09-26T01:59:29.447Z,999.56
2022-09-26T01:59:50.488Z,999.60
2022-09-26T02:00:11.558Z,999.58
2022-09-26T02:00:32.624Z,999.56
2022-09-26T02:00:53.673Z,999.56
2022-09-26T02:01:14.760Z,999.56
2022-09-26T02:01:35.970Z,999.56
2022-09-26T02:01:57.143Z,999.60
2022-09-26T02:02:18.247Z,999.52
2022-09-26T02:02:39.355Z,999.58
2022-09-26T02:03:00.404Z,999.56
2022-09-26T02:03:21.460Z,999.54
2022-09-26T02:03:42.578Z,999.54
2022-09-26T02:04:03.591Z,999.52
2022-09-26T02:04:24.649Z,999.54
2022-09-26T02:04:45.701Z,999.52
2022-09-26T02:05:06.750Z,999.54
2022-09-26T02:05:27.809Z,999.54
2022-09-26T02:05:48.853Z,999.54
2022-09-26T02:06:09.929Z,999.54
2022-09-26T02:06:30.968Z,999.54
2022-09-26T02:06:52.015Z,999.54
2022-09-26T02:07:13.085Z,999.52
2022-09-26T02:07:34.121Z,999.54
2022-09-26T02:07:55.165Z,999.48
2022-09-26T02:08:16.250Z,999.50
2022-09-26T02:08:37.290Z,999.50
2022-09-26T02:08:58.456Z,999.48
2022-09-26T02:09:19.503Z,999.50
2022-09-26T02:09:40.563Z,999.50
2022-09-26T02:10:01.607Z,999.48
2022-09-26T02:10:22.656Z,999.50
2022-09-26T02:10:43.754Z,999.44
2022-09-26T02:11:04.785Z,999.46
2022-09-26T02:11:25.831Z,999.46
2022-09-26T02:11:46.884Z,999.46
2022-09-26T02:12:07.924Z,999.44
2022-09-26T02:12:29.023Z,999.46
2022-09-26T02:12:50.065Z,999.44
2022-09-26T02:13:11.167Z,999.44
2022-09-26T02:13:32.184Z,999.42
2022-09-26T02:13:53.278Z,999.42
2022-09-26T02:14:14.330Z,999.40
2022-09-26T02:14:35.388Z,999.40
2022-09-26T02:14:56.425Z,999.42
2022-09-26T02:15:17.476Z,999.42
2022-09-26T02:15:38.537Z,999.38
2022-09-26T02:15:59.603Z,999.37
2022-09-26T02:16:20.678Z,999.37
2022-09-26T02:16:41.738Z,999.37
2022-09-26T02:17:02.764Z,999.37
2022-09-26T02:17:23.810Z,999.38
2022-09-26T02:17:44.842Z,999.38
2022-09-26T02:18:05.919Z,999.37
2022-09-26T02:18:26.958Z,999.35
2022-09-26T02:18:48.025Z,999.37
2022-09-26T02:19:09.259Z,999.35
2022-09-26T02:19:30.294Z,999.35
2022-09-26T02:19:51.347Z,999.35
2022-09-26T02:20:12.407Z,999.37
2022-09-26T02:20:33.457Z,999.37
2022-09-26T02:20:54.508Z,999.31
2022-09-26T02:21:15.555Z,999.35
2022-09-26T02:21:36.612Z,999.37
2022-09-26T02:21:57.659Z,999.38
2022-09-26T02:22:18.717Z,999.35
2022-09-26T02:22:39.763Z,999.35
2022-09-26T02:23:00.812Z,999.37
2022-09-26T02:23:21.858Z,999.37
2022-09-26T02:23:42.960Z,999.37
2022-09-26T02:24:04.005Z,999.37
2022-09-26T02:24:25.051Z,999.37
2022-09-26T02:24:46.102Z,999.37
2022-09-26T02:25:07.156Z,999.35
2022-09-26T02:25:28.215Z,999.35
2022-09-26T02:25:49.291Z,999.37
2022-09-26T02:26:10.330Z,999.35
2022-09-26T02:26:31.400Z,999.35
2022-09-26T02:26:52.518Z,999.37
2022-09-26T02:27:13.531Z,999.37
2022-09-26T02:27:34.573Z,999.37
2022-09-26T02:27:55.624Z,999.37
2022-09-26T02:28:16.668Z,999.33
2022-09-26T02:28:37.715Z,999.35
2022-09-26T02:28:58.767Z,999.31
2022-09-26T02:29:19.863Z,999.31
2022-09-26T02:29:40.909Z,999.31
2022-09-26T02:30:01.951Z,999.31
2022-09-26T02:30:23.007Z,999.31
2022-09-26T02:30:44.063Z,999.33
2022-09-26T02:31:05.110Z,999.29
2022-09-26T02:31:26.275Z,999.29
2022-09-26T02:31:47.443Z,999.25
2022-09-26T02:32:08.536Z,999.27
2022-09-26T02:32:29.558Z,999.27
2022-09-26T02:32:50.620Z,999.27
2022-09-26T02:33:11.696Z,999.27
2022-09-26T02:33:32.706Z,999.25
2022-09-26T02:33:53.761Z,999.27
2022-09-26T02:34:14.874Z,999.27
2022-09-26T02:34:36.035Z,999.27
2022-09-26T02:34:57.086Z,999.27
2022-09-26T02:35:18.196Z,999.27
2022-09-26T02:35:39.219Z,999.21
2022-09-26T02:36:00.252Z,999.23
2022-09-26T02:36:21.305Z,999.23
2022-09-26T02:36:42.344Z,999.21
2022-09-26T02:37:03.404Z,999.25
2022-09-26T02:37:24.524Z,999.23
2022-09-26T02:37:45.539Z,999.19
2022-09-26T02:38:06.587Z,999.23
2022-09-26T02:38:27.651Z,999.21
2022-09-26T02:38:48.691Z,999.23
2022-09-26T02:39:09.741Z,999.23
2022-09-26T02:39:30.968Z,999.23
2022-09-26T02:39:51.971Z,999.23
2022-09-26T02:40:13.079Z,999.23
2022-09-26T02:40:34.283Z,999.23
2022-09-26T02:40:55.458Z,999.23
2022-09-26T02:41:16.542Z,999.19
2022-09-26T02:41:37.585Z,999.19
2022-09-26T02:41:58.642Z,999.19
2022-09-26T02:42:19.698Z,999.21
2022-09-26T02:42:40.734Z,999.21
2022-09-26T02:43:01.782Z,999.21
2022-09-26T02:43:22.831Z,999.17
2022-09-26T02:43:43.888Z,999.19
2022-09-26T02:44:04.944Z,999.21
2022-09-26T02:44:26.002Z,999.19
2022-09-26T02:44:47.203Z,999.19
2022-09-26T02:45:08.246Z,999.21
2022-09-26T02:45:29.348Z,999.23
2022-09-26T02:45:50.429Z,999.25
2022-09-26T02:46:11.521Z,999.23
2022-09-26T02:46:32.596Z,999.21
2022-09-26T02:46:53.679Z,999.23
2022-09-26T02:47:14.796Z,999.21
2022-09-26T02:47:35.858Z,999.23
2022-09-26T02:47:56.891Z,999.23
2022-09-26T02:48:17.970Z,999.23
2022-09-26T02:48:39.008Z,999.25
2022-09-26T02:49:00.063Z,999.25
2022-09-26T02:49:21.112Z,999.23
2022-09-26T02:49:42.177Z,999.25
2022-09-26T02:50:03.339Z,999.25
2022-09-26T02:50:24.384Z,999.27
2022-09-26T02:50:45.441Z,999.27
2022-09-26T02:51:06.518Z,999.27
2022-09-26T02:51:27.590Z,999.27
2022-09-26T02:51:48.619Z,999.27
2022-09-26T02:52:09.795Z,999.25
2022-09-26T02:52:30.794Z,999.23
2022-09-26T02:52:51.838Z,999.25
2022-09-26T02:53:12.949Z,999.23
2022-09-26T02:53:34.064Z,999.23
2022-09-26T02:53:55.075Z,999.23
2022-09-26T02:54:16.134Z,999.23
2022-09-26T02:54:37.175Z,999.23
2022-09-26T02:54:58.236Z,999.21
2022-09-26T02:55:19.293Z,999.21
2022-09-26T02:55:40.338Z,999.19
2022-09-26T02:56:01.390Z,999.21
2022-09-26T02:56:22.443Z,999.19
2022-09-26T02:56:43.489Z,999.19
2022-09-26T02:57:04.539Z,999.19
2022-09-26T02:57:25.594Z,999.13
2022-09-26T02:57:46.689Z,999.13
2022-09-26T02:58:07.721Z,999.13
2022-09-26T02:58:28.763Z,999.13
2022-09-26T02:58:49.819Z,999.15
2022-09-26T02:59:10.865Z,999.11
2022-09-26T02:59:31.919Z,999.11
2022-09-26T02:59:53.008Z,999.13
2022-09-26T03:00:14.184Z,999.11
2022-09-26T03:00:35.242Z,999.07
2022-09-26T03:00:56.331Z,999.05
2022-09-26T03:01:17.393Z,999.07
2022-09-26T03:01:38.531Z,999.05
2022-09-26T03:01:59.583Z,999.07
2022-09-26T03:02:20.654Z,999.03
2022-09-26T03:02:41.683Z,999.01
2022-09-26T03:03:02.738Z,998.99
2022-09-26T03:03:23.859Z,999.01
2022-09-26T03:03:44.985Z,998.97
2022-09-26T03:04:06.043Z,998.97
2022-09-26T03:04:27.167Z,998.95
2022-09-26T03:04:48.325Z,998.99
2022-09-26T03:05:09.479Z,998.95
2022-09-26T03:05:30.529Z,998.97
2022-09-26T03:05:51.585Z,998.97
2022-09-26T03:06:12.630Z,998.95
2022-09-26T03:06:33.688Z,998.95
2022-09-26T03:06:54.730Z,998.97
2022-09-26T03:07:15.773Z,998.93
2022-09-26T03:07:36.909Z,998.99
2022-09-26T03:07:57.910Z,998.95
2022-09-26T03:08:18.982Z,998.93
2022-09-26T03:08:40.014Z,998.95
2022-09-26T03:09:01.056Z,998.93
2022-09-26T03:09:22.105Z,998.95
2022-09-26T03:09:43.157Z,998.93
2022-09-26T03:10:04.206Z,998.91
2022-09-26T03:10:25.391Z,998.95
2022-09-26T03:10:46.451Z,998.93
2022-09-26T03:11:07.484Z,998.90
2022-09-26T03:11:28.518Z,998.90
2022-09-26T03:11:49.601Z,998.91
2022-09-26T03:12:10.624Z,998.90
2022-09-26T03:12:31.679Z,998.88
2022-09-26T03:12:52.718Z,998.88
2022-09-26T03:13:13.781Z,998.88
2022-09-26T03:13:34.866Z,998.86
2022-09-26T03:13:55.909Z,998.86
2022-09-26T03:14:16.974Z,998.86
2022-09-26T03:14:38.028Z,998.84
2022-09-26T03:14:59.068Z,998.84
2022-09-26T03:15:20.144Z,998.84
2022-09-26T03:15:41.192Z,998.82
2022-09-26T03:16:02.293Z,998.82
2022-09-26T03:16:23.332Z,998.84
2022-09-26T03:16:44.450Z,998.80
2022-09-26T03:17:05.491Z,998.78
2022-09-26T03:17:26.553Z,998.78
2022-09-26T03:17:47.576Z,998.78
2022-09-26T03:18:08.626Z,998.76
2022-09-26T03:18:29.685Z,998.78
2022-09-26T03:18:50.724Z,998.76
2022-09-26T03:19:11.784Z,998.74
2022-09-26T03:19:32.861Z,998.76
2022-09-26T03:19:53.871Z,998.74
2022-09-26T03:20:14.919Z,998.72
2022-09-26T03:20:35.978Z,998.72
2022-09-26T03:20:57.054Z,998.72
2022-09-26T03:21:18.093Z,998.70
2022-09-26T03:21:39.147Z,998.70
2022-09-26T03:22:00.236Z,998.70
2022-09-26T03:22:21.255Z,998.70
2022-09-26T03:22:42.308Z,998.70
2022-09-26T03:23:03.385Z,998.70
2022-09-26T03:23:24.415Z,998.68
2022-09-26T03:23:45.457Z,998.70
2022-09-26T03:24:06.520Z,998.70
2022-09-26T03:24:27.569Z,998.68
2022-09-26T03:24:48.660Z,998.68
2022-09-26T03:25:09.686Z,998.70
2022-09-26T03:25:30.759Z,998.66
2022-09-26T03:25:51.803Z,998.68
2022-09-26T03:26:12.858Z,998.68
2022-09-26T03:26:33.919Z,998.68
2022-09-26T03:26:54.955Z,998.66
2022-09-26T03:27:16.006Z,998.68
2022-09-26T03:27:37.069Z,998.66
2022-09-26T03:27:58.096Z,998.66
2022-09-26T03:28:19.151Z,998.66
2022-09-26T03:28:40.217Z,998.62
2022-09-26T03:29:01.280Z,998.64
2022-09-26T03:29:22.298Z,998.60
2022-09-26T03:29:43.369Z,998.60
2022-09-26T03:30:04.399Z,998.58
2022-09-26T03:30:25.472Z,998.58
2022-09-26T03:30:46.575Z,998.56
2022-09-26T03:31:07.630Z,998.60
2022-09-26T03:31:28.733Z,998.58
2022-09-26T03:31:49.836Z,998.58
2022-09-26T03:32:10.953Z,998.58
2022-09-26T03:32:32.082Z,998.56
2022-09-26T03:32:53.135Z,998.56
2022-09-26T03:33:14.179Z,998.54
2022-09-26T03:33:35.231Z,998.56
2022-09-26T03:33:56.316Z,998.56
2022-09-26T03:34:17.327Z,998.58
2022-09-26T03:34:38.370Z,998.58
2022-09-26T03:34:59.431Z,998.56
2022-09-26T03:35:20.471Z,998.58
2022-09-26T03:35:41.546Z,998.54
2022-09-26T03:36:02.608Z,998.52
2022-09-26T03:36:23.672Z,998.58
2022-09-26T03:36:44.708Z,998.52
2022-09-26T03:37:05.764Z,998.60
2022-09-26T03:37:26.825Z,998.58
2022-09-26T03:37:47.858Z,998.54
2022-09-26T03:38:13.586Z,998.56
2022-09-26T03:38:35.875Z,998.52
2022-09-26T03:38:56.943Z,998.56
2022-09-26T03:39:17.985Z,998.56
2022-09-26T03:39:39.040Z,998.54
2022-09-26T03:40:00.121Z,998.54
2022-09-26T03:40:21.186Z,998.54
2022-09-26T03:40:42.324Z,998.52
2022-09-26T03:41:03.466Z,998.54
2022-09-26T03:41:24.511Z,998.52
2022-09-26T03:41:45.578Z,998.52
2022-09-26T03:42:06.627Z,998.52
2022-09-26T03:42:27.672Z,998.54
2022-09-26T03:42:48.723Z,998.52
2022-09-26T03:43:09.777Z,998.54
2022-09-26T03:43:30.830Z,998.56
2022-09-26T03:43:51.885Z,998.56
2022-09-26T03:44:12.924Z,998.52
2022-09-26T03:44:34.020Z,998.50
2022-09-26T03:44:55.084Z,998.52
2022-09-26T03:45:16.160Z,998.50
2022-09-26T03:45:37.226Z,998.50
2022-09-26T03:45:58.324Z,998.48
2022-09-26T03:46:19.421Z,998.46
2022-09-26T03:46:40.465Z,998.48
2022-09-26T03:47:01.512Z,998.48
2022-09-26T03:47:22.570Z,998.48
2022-09-26T03:47:43.635Z,998.48
2022-09-26T03:48:04.664Z,998.48
2022-09-26T03:48:25.712Z,998.46
2022-09-26T03:48:46.788Z,998.48
2022-09-26T03:49:07.817Z,998.46
2022-09-26T03:49:28.875Z,998.46
2022-09-26T03:49:49.941Z,998.46
2022-09-26T03:50:10.980Z,998.44
2022-09-26T03:50:32.064Z,998.46
2022-09-26T03:50:53.235Z,998.46
2022-09-26T03:51:14.270Z,998.46
2022-09-26T03:51:35.312Z,998.46
2022-09-26T03:51:56.363Z,998.48
2022-09-26T03:52:17.408Z,998.46
2022-09-26T03:52:38.456Z,998.46
2022-09-26T03:52:59.553Z,998.46
2022-09-26T03:53:20.624Z,998.46
2022-09-26T03:53:41.636Z,998.48
2022-09-26T03:54:02.679Z,998.44
2022-09-26T03:54:23.754Z,998.46
2022-09-26T03:54:44.800Z,998.46
2022-09-26T03:55:05.849Z,998.44
2022-09-26T03:55:26.899Z,998.43
2022-09-26T03:55:47.997Z,998.43
2022-09-26T03:56:09.061Z,998.41
2022-09-26T03:56:30.111Z,998.39
2022-09-26T03:56:51.158Z,998.41
2022-09-26T03:57:12.216Z,998.41
2022-09-26T03:57:33.275Z,998.39
2022-09-26T03:57:54.324Z,998.39
2022-09-26T03:58:15.360Z,998.39
2022-09-26T03:58:36.419Z,998.37
2022-09-26T03:58:57.484Z,998.39
2022-09-26T03:59:18.535Z,998.37
2022-09-26T03:59:39.584Z,998.35
2022-09-26T04:00:00.678Z,998.35
2022-09-26T04:00:21.690Z,998.35
2022-09-26T04:00:42.824Z,998.35
2022-09-26T04:01:03.903Z,998.33
2022-09-26T04:01:25.133Z,998.33
2022-09-26T04:01:46.236Z,998.33
2022-09-26T04:02:07.333Z,998.27
2022-09-26T04:02:28.451Z,998.29
2022-09-26T04:02:49.532Z,998.29
2022-09-26T04:03:10.587Z,998.27
2022-09-26T04:03:31.625Z,998.27
2022-09-26T04:03:52.707Z,998.27
2022-09-26T04:04:13.731Z,998.27
2022-09-26T04:04:34.787Z,998.29
2022-09-26T04:04:55.848Z,998.29
2022-09-26T04:05:16.881Z,998.29
2022-09-26T04:05:37.926Z,998.27
2022-09-26T04:05:58.989Z,998.27
2022-09-26T04:06:20.489Z,998.27
2022-09-26T04:06:41.998Z,998.25
2022-09-26T04:07:03.036Z,998.23
2022-09-26T04:07:24.085Z,998.27
2022-09-26T04:07:45.180Z,998.23
2022-09-26T04:08:06.204Z,998.23
2022-09-26T04:08:27.268Z,998.21
2022-09-26T04:08:48.318Z,998.19
2022-09-26T04:09:12.066Z,998.19
2022-09-26T04:09:36.370Z,998.17
2022-09-26T04:09:57.380Z,998.17
2022-09-26T04:10:18.446Z,998.15
2022-09-26T04:10:39.501Z,998.19
2022-09-26T04:11:00.549Z,998.17
2022-09-26T04:11:21.679Z,998.17
2022-09-26T04:11:42.695Z,998.15
2022-09-26T04:12:03.758Z,998.15
2022-09-26T04:12:24.854Z,998.15
2022-09-26T04:12:45.873Z,998.17
2022-09-26T04:13:06.938Z,998.11
2022-09-26T04:13:50.022Z,998.13
2022-09-26T04:13:54.946Z,998.11
2022-09-26T04:14:16.004Z,998.09
2022-09-26T04:14:37.041Z,998.11
2022-09-26T04:14:58.147Z,998.11
2022-09-26T04:15:19.165Z,998.09
2022-09-26T04:15:40.236Z,998.09
2022-09-26T04:16:01.381Z,998.07
2022-09-26T04:16:22.784Z,998.07
2022-09-26T04:16:43.995Z,998.07
2022-09-26T04:17:05.017Z,998.07
2022-09-26T04:17:26.091Z,998.03
2022-09-26T04:17:47.122Z,998.03
2022-09-26T04:18:08.275Z,998.05
2022-09-26T04:18:29.292Z,998.03
2022-09-26T04:18:50.330Z,998.01
2022-09-26T04:19:11.494Z,998.01
2022-09-26T04:19:32.569Z,998.01
2022-09-26T04:19:53.605Z,998.01
2022-09-26T04:20:14.686Z,998.01
2022-09-26T04:20:35.746Z,998.01
2022-09-26T04:20:56.795Z,997.99
2022-09-26T04:21:17.833Z,998.01